Time;durP1;ratioP1;P1;durP2;ratioP2;P2;SDS_P1;SDS_P2;PMS_P1;PMS_P2;Temp;Humidity;BMP_temperature;BMP_pressure;BME280_temperature;BME280_humidity;BME280_pressure;Samples;Min_cycle;Max_cycle;Signal;HPM_P1;HPM_P2
2024/01/18 00:01:18;;;;;;;31.00;12.80;;;;;;;0.70;42.57;99452.26;107673;1253;728041;-66
2024/01/18 00:05:06;;;;;;;41.50;17.00;;;;;;;-1.03;47.29;99450.65;104962;1290;601120;-65
2024/01/18 00:07:34;;;;;;;38.90;17.00;;;;;;;0.49;43.45;99440.67;107301;1264;60398;-66
2024/01/18 00:10:03;;;;;;;37.30;16.60;;;;;;;0.63;43.13;99432.45;107321;1269;59050;-66
2024/01/18 00:12:30;;;;;;;39.20;17.60;;;;;;;0.79;42.87;99419.02;107339;1264;72368;-67
2024/01/18 00:14:58;;;;;;;39.10;15.60;;;;;;;0.51;43.44;99424.09;107371;1264;69256;-67
2024/01/18 00:17:26;;;;;;;34.60;16.10;;;;;;;0.50;43.59;99413.04;107340;1264;72714;-66
2024/01/18 00:19:54;;;;;;;37.40;16.80;;;;;;;0.26;44.28;99406.82;107263;1263;164981;-66
2024/01/18 00:22:22;;;;;;;47.20;17.50;;;;;;;0.35;44.28;99400.19;107395;1262;59265;-66
2024/01/18 00:24:50;;;;;;;37.00;15.70;;;;;;;0.62;43.95;99384.95;107980;1257;70295;-66
2024/01/18 00:27:18;;;;;;;41.70;18.20;;;;;;;0.93;43.66;99366.69;107930;1256;70090;-66
2024/01/18 00:29:45;;;;;;;39.10;17.10;;;;;;;0.87;43.59;99363.30;107974;1260;71210;-66
2024/01/18 00:32:13;;;;;;;36.60;16.60;;;;;;;1.12;43.15;99349.02;107728;1257;61735;-67
2024/01/18 00:34:40;;;;;;;41.50;18.30;;;;;;;1.29;43.32;99338.81;107854;1256;60646;-67
2024/01/18 00:37:08;;;;;;;38.40;17.90;;;;;;;1.32;43.14;99333.41;107836;1257;71370;-67
2024/01/18 00:39:42;;;;;;;37.00;15.60;;;;;;;1.32;43.12;99320.43;107766;1257;69970;-67
2024/01/18 00:42:10;;;;;;;36.40;16.50;;;;;;;1.56;43.31;99319.44;107781;1257;70911;-67
2024/01/18 00:44:37;;;;;;;33.80;16.20;;;;;;;1.52;43.05;99323.11;107805;1257;60382;-67
2024/01/18 00:47:05;;;;;;;40.60;17.20;;;;;;;1.36;43.42;99309.65;107828;1257;60064;-68
2024/01/18 00:49:33;;;;;;;46.90;17.20;;;;;;;1.18;43.83;99298.13;107869;1258;73071;-67
2024/01/18 00:52:02;;;;;;;39.50;16.90;;;;;;;0.86;44.63;99286.58;107875;1257;69351;-67
2024/01/18 00:54:30;;;;;;;45.00;16.70;;;;;;;0.99;44.98;99278.82;107840;1259;72917;-66
2024/01/18 00:56:57;;;;;;;41.70;18.90;;;;;;;1.21;44.90;99260.58;107789;1257;61677;-66
2024/01/18 00:59:25;;;;;;;42.20;18.00;;;;;;;1.28;45.28;99254.08;107803;1256;59102;-66
2024/01/18 01:01:53;;;;;;;41.80;17.60;;;;;;;1.47;45.29;99241.71;107864;1257;72012;-67
2024/01/18 01:04:20;;;;;;;57.20;21.20;;;;;;;1.52;45.14;99230.92;107848;1257;69760;-67
2024/01/18 01:06:48;;;;;;;40.10;17.50;;;;;;;1.29;45.74;99226.23;107834;1257;71417;-66
2024/01/18 01:09:16;;;;;;;39.70;17.20;;;;;;;1.24;46.12;99216.79;107849;1257;61877;-66
2024/01/18 01:11:44;;;;;;;54.10;18.90;;;;;;;1.43;45.92;99206.32;107997;1259;60065;-66
2024/01/18 01:14:11;;;;;;;34.60;15.60;;;;;;;1.24;46.52;99202.08;107961;1254;71823;-65
2024/01/18 01:16:40;;;;;;;44.30;17.70;;;;;;;1.32;46.70;99199.56;107983;1254;70724;-66
2024/01/18 01:19:09;;;;;;;34.50;15.10;;;;;;;1.29;46.85;99184.38;108062;1254;71457;-66
2024/01/18 01:21:36;;;;;;;47.40;20.20;;;;;;;0.84;48.37;99174.80;107957;1254;62633;-67
2024/01/18 01:24:04;;;;;;;45.70;18.30;;;;;;;0.87;48.76;99161.61;107996;1254;59221;-65
2024/01/18 01:26:32;;;;;;;42.30;18.10;;;;;;;1.00;48.83;99137.77;107920;1254;71857;-66
2024/01/18 01:29:00;;;;;;;53.10;14.70;;;;;;;1.04;48.88;99134.77;107973;1254;69157;-66
2024/01/18 01:31:27;;;;;;;49.80;18.60;;;;;;;1.08;48.84;99127.45;108026;1254;73057;-67
2024/01/18 01:33:55;;;;;;;41.30;17.80;;;;;;;1.03;49.41;99122.00;107997;1258;60743;-67
2024/01/18 01:36:22;;;;;;;46.30;17.70;;;;;;;1.10;49.44;99106.16;108043;1254;60127;-65
2024/01/18 01:38:50;;;;;;;48.20;20.20;;;;;;;1.06;49.70;99101.73;107945;1254;71765;-67
2024/01/18 01:41:17;;;;;;;34.60;14.70;;;;;;;1.41;49.05;99095.65;107935;1254;69084;-67
2024/01/18 01:44:01;;;;;;;45.80;20.90;;;;;;;1.24;49.41;99091.08;107884;1254;72718;-67
2024/01/18 01:46:29;;;;;;;46.60;19.50;;;;;;;1.36;49.29;99091.76;107902;1254;59647;-67
2024/01/18 01:48:59;;;;;;;47.80;21.70;;;;;;;1.53;48.96;99090.44;107948;1254;59534;-66
2024/01/18 01:51:28;;;;;;;38.10;15.30;;;;;;;1.71;48.70;99089.77;107878;1254;71234;-67
2024/01/18 01:53:56;;;;;;;50.80;20.90;;;;;;;1.68;48.87;99087.92;107945;1254;68657;-68
2024/01/18 01:56:24;;;;;;;44.70;20.10;;;;;;;1.58;48.98;99075.65;108099;1254;71720;-67
2024/01/18 01:58:52;;;;;;;38.00;16.60;;;;;;;1.54;49.30;99074.15;107874;1254;61654;-67
2024/01/18 02:01:20;;;;;;;50.90;20.90;;;;;;;1.82;48.82;99069.84;107890;1254;60342;-66
2024/01/18 02:03:47;;;;;;;53.30;20.90;;;;;;;1.80;48.50;99060.70;107999;1256;73085;-67
2024/01/18 02:06:15;;;;;;;54.60;19.60;;;;;;;1.68;48.99;99050.55;107908;1257;70088;-67
2024/01/18 02:08:44;;;;;;;48.20;21.60;;;;;;;1.80;49.13;99041.15;107854;1256;71237;-67
2024/01/18 02:11:12;;;;;;;37.90;16.60;;;;;;;1.77;49.36;99033.44;107901;1257;61756;-66
2024/01/18 02:13:40;;;;;;;50.80;21.30;;;;;;;1.51;49.81;99024.74;107725;1256;58774;-67
2024/01/18 02:16:09;;;;;;;54.60;21.70;;;;;;;1.61;49.63;99012.97;107981;1257;71829;-66
2024/01/18 02:18:37;;;;;;;52.50;23.50;;;;;;;1.81;49.27;99006.88;107799;1256;70165;-66
2024/01/18 02:21:07;;;;;;;45.60;19.50;;;;;;;1.91;49.00;99000.78;108145;1256;71479;-66
2024/01/18 02:23:35;;;;;;;;;;;;;;;1.95;49.10;98989.45;108018;1256;60515;-66
2024/01/18 02:26:03;;;;;;;51.20;21.50;;;;;;;1.93;49.23;98987.76;107795;1261;59840;-67
2024/01/18 02:28:30;;;;;;;41.40;18.50;;;;;;;1.92;49.14;98977.92;107938;1257;73097;-66
2024/01/18 02:30:59;;;;;;;43.70;18.60;;;;;;;1.95;49.39;98966.09;107973;1257;70289;-66
2024/01/18 02:33:26;;;;;;;39.20;16.80;;;;;;;1.88;49.52;98953.94;107880;1256;72669;-70
2024/01/18 02:35:54;;;;;;;52.60;23.50;;;;;;;1.96;49.54;98944.77;107939;1256;60475;-66
2024/01/18 02:38:21;;;;;;;56.10;25.20;;;;;;;1.84;50.01;98943.48;107871;1257;59627;-67
2024/01/18 02:40:49;;;;;;;59.50;25.90;;;;;;;1.99;49.57;98930.34;107940;1260;72019;-66
2024/01/18 02:43:16;;;;;;;61.20;24.50;;;;;;;2.03;49.52;98921.09;107826;1257;69032;-66
2024/01/18 02:45:44;;;;;;;49.20;21.40;;;;;;;1.90;50.22;98909.08;107907;1256;71573;-66
2024/01/18 02:48:11;;;;;;;52.60;23.50;;;;;;;2.05;49.92;98899.91;107916;1257;60891;-67
2024/01/18 02:50:41;;;;;;;57.60;24.40;;;;;;;2.30;49.57;98885.66;107876;1257;59531;-66
2024/01/18 02:53:08;;;;;;;46.80;20.80;;;;;;;2.13;50.04;98880.17;107898;1255;73497;-65
2024/01/18 02:55:36;;;;;;;61.20;26.80;;;;;;;2.14;50.48;98866.11;107920;1255;68978;-66
2024/01/18 02:58:04;;;;;;;71.40;27.20;;;;;;;2.09;50.85;98859.14;107807;1257;71422;-65
2024/01/18 03:00:32;;;;;;;56.70;26.10;;;;;;;2.28;50.65;98854.73;107900;1257;59416;-66
2024/01/18 03:02:59;;;;;;;56.10;24.80;;;;;;;2.49;50.32;98853.51;107921;1254;60019;-66
2024/01/18 03:05:27;;;;;;;59.90;26.80;;;;;;;2.32;50.96;98848.38;107965;1254;73080;-66
2024/01/18 03:07:54;;;;;;;55.00;25.00;;;;;;;2.48;50.79;98840.89;107918;1254;70108;-66
2024/01/18 03:10:23;;;;;;;46.30;20.70;;;;;;;2.56;50.77;98840.33;107902;1254;72662;-66
2024/01/18 03:12:50;;;;;;;63.80;27.70;;;;;;;2.41;51.30;98831.02;107887;1254;60679;-66
2024/01/18 03:15:19;;;;;;;57.30;23.50;;;;;;;2.86;50.66;98816.86;107916;1254;59177;-66
2024/01/18 03:17:46;;;;;;;66.30;28.10;;;;;;;2.49;51.94;98814.02;107932;1254;73065;-66
2024/01/18 03:20:14;;;;;;;67.10;30.00;;;;;;;2.97;51.05;98807.05;108247;1254;69214;-66
2024/01/18 03:22:41;;;;;;;67.80;27.60;;;;;;;2.91;51.48;98810.69;108012;1257;72303;-66
2024/01/18 03:25:09;;;;;;;73.90;30.50;;;;;;;2.88;51.98;98810.23;107948;1254;60409;-67
2024/01/18 03:27:37;;;;;;;56.90;24.50;;;;;;;3.18;51.53;98809.39;107981;1254;59470;-66
2024/01/18 03:30:07;;;;;;;63.90;30.70;;;;;;;3.38;51.24;98802.77;107909;1254;71815;-67
2024/01/18 03:32:35;;;;;;;62.90;29.70;;;;;;;3.75;50.56;98787.77;107990;1254;68396;-67
2024/01/18 03:35:03;;;;;;;63.40;26.40;;;;;;;3.82;50.45;98784.96;107978;1256;71826;-66
2024/01/18 03:37:30;;;;;;;71.30;30.20;;;;;;;3.54;51.28;98776.77;107932;1257;60575;-66
2024/01/18 03:39:58;;;;;;;46.70;20.80;;;;;;;3.68;51.18;98771.33;107905;1254;59513;-66
2024/01/18 03:42:26;;;;;;;68.40;31.60;;;;;;;3.51;51.70;98757.95;107911;1254;71020;-68
2024/01/18 03:44:55;;;;;;;75.70;33.70;;;;;;;3.67;51.49;98748.61;107987;1254;70097;-67
2024/01/18 03:47:22;;;;;;;78.30;35.50;;;;;;;3.80;51.48;98741.61;107964;1256;71595;-67
2024/01/18 03:49:50;;;;;;;80.90;34.90;;;;;;;3.73;51.95;98740.60;108055;1257;63438;-68
2024/01/18 03:52:18;;;;;;;82.90;36.00;;;;;;;3.99;51.49;98744.84;107970;1254;59177;-66
2024/01/18 03:54:48;;;;;;;91.10;38.90;;;;;;;4.18;51.15;98737.63;107979;1254;72515;-66
2024/01/18 03:57:15;;;;;;;82.50;35.20;;;;;;;4.20;51.39;98729.73;107930;1254;67919;-66
2024/01/18 03:59:47;;;;;;;83.90;35.00;;;;;;;3.97;52.38;98717.78;107957;1256;72677;-66
2024/01/18 04:02:15;;;;;;;96.10;40.70;;;;;;;4.08;52.46;98713.11;108173;1253;61743;-67
2024/01/18 04:04:42;;;;;;;80.50;35.50;;;;;;;4.24;52.32;98710.84;108173;1259;59513;-67
2024/01/18 04:07:10;;;;;;;62.30;25.80;;;;;;;4.37;52.26;98701.35;108097;1253;71712;-67
2024/01/18 04:09:37;;;;;;;84.00;34.50;;;;;;;4.22;52.93;98703.27;108162;1253;70371;-67
2024/01/18 04:12:05;;;;;;;84.10;33.60;;;;;;;4.32;52.72;98696.14;108060;1254;72714;-67
2024/01/18 04:14:33;;;;;;;76.30;34.30;;;;;;;4.49;52.90;98689.99;108174;1254;60452;-66
2024/01/18 04:17:00;;;;;;;78.00;34.40;;;;;;;4.75;52.10;98678.11;108196;1253;60436;-66
2024/01/18 04:19:28;;;;;;;76.20;33.60;;;;;;;4.82;52.11;98676.81;108132;1253;72685;-66
2024/01/18 04:21:55;;;;;;;79.10;34.30;;;;;;;5.03;51.68;98670.27;108116;1254;69342;-67
2024/01/18 04:24:24;;;;;;;88.60;36.10;;;;;;;4.67;52.92;98663.08;108091;1254;70653;-66
2024/01/18 04:26:51;;;;;;;88.30;36.00;;;;;;;4.82;52.86;98660.80;108143;1259;60450;-65
2024/01/18 04:29:19;;;;;;;80.40;35.40;;;;;;;5.01;52.76;98661.50;108204;1253;60312;-66
2024/01/18 04:31:46;;;;;;;76.10;31.80;;;;;;;5.13;52.64;98658.08;108113;1253;73885;-67
2024/01/18 04:34:14;;;;;;;79.80;34.50;;;;;;;4.94;53.28;98647.86;107982;1254;69617;-66
2024/01/18 04:36:41;;;;;;;75.70;32.90;;;;;;;4.99;53.43;98644.52;108042;1258;71489;-67
2024/01/18 04:39:09;;;;;;;73.60;31.60;;;;;;;5.02;53.31;98641.27;108098;1254;61043;-66
2024/01/18 04:41:37;;;;;;;73.10;31.30;;;;;;;5.23;53.09;98634.52;108142;1252;61418;-65
2024/01/18 04:44:04;;;;;;;80.60;34.00;;;;;;;5.29;52.79;98626.48;108019;1254;72017;-66
2024/01/18 04:46:33;;;;;;;68.00;27.50;;;;;;;5.29;52.96;98626.30;108176;1253;69187;-67
2024/01/18 04:49:00;;;;;;;76.00;33.00;;;;;;;5.36;52.95;98627.41;108027;1254;71415;-66
2024/01/18 04:51:28;;;;;;;85.20;36.40;;;;;;;5.32;53.23;98627.21;108146;1254;60405;-67
2024/01/18 04:53:55;;;;;;;91.60;36.60;;;;;;;5.52;52.90;98618.05;108166;1253;60395;-67
2024/01/18 04:56:23;;;;;;;87.20;37.00;;;;;;;5.49;53.04;98609.52;108165;1254;71769;-67
2024/01/18 04:58:51;;;;;;;92.00;39.20;;;;;;;5.50;53.13;98603.17;108050;1254;69943;-67
2024/01/18 05:01:18;;;;;;;74.10;29.60;;;;;;;5.38;53.28;98609.23;108082;1255;72642;-66
2024/01/18 05:03:46;;;;;;;90.10;37.30;;;;;;;5.31;53.93;98620.48;108091;1254;60687;-67
2024/01/18 05:06:14;;;;;;;87.20;36.10;;;;;;;5.39;53.96;98618.61;108075;1253;60325;-66
2024/01/18 05:08:41;;;;;;;95.20;38.60;;;;;;;5.24;54.46;98609.96;108063;1253;73058;-66
2024/01/18 05:11:09;;;;;;;93.00;36.70;;;;;;;5.39;54.52;98597.04;108103;1254;70135;-65
2024/01/18 05:13:37;;;;;;;95.40;38.00;;;;;;;5.42;54.55;98580.88;108122;1253;72994;-65
2024/01/18 05:16:04;;;;;;;98.40;39.60;;;;;;;5.61;54.16;98571.23;108049;1253;60727;-67
2024/01/18 05:18:32;;;;;;;99.20;39.30;;;;;;;5.51;54.66;98560.52;108080;1254;60377;-67
2024/01/18 05:21:00;;;;;;;68.70;25.70;;;;;;;5.55;54.58;98562.41;108132;1254;72291;-66
2024/01/18 05:23:28;;;;;;;115.00;41.50;;;;;;;5.33;55.69;98554.62;108152;1257;68715;-67
2024/01/18 05:25:56;;;;;;;100.30;39.60;;;;;;;5.67;55.06;98539.29;108085;1253;71145;-67
2024/01/18 05:28:23;;;;;;;104.30;41.40;;;;;;;5.73;55.02;98532.77;108043;1254;61653;-67
2024/01/18 05:30:51;;;;;;;97.00;40.20;;;;;;;5.73;54.96;98518.84;108098;1253;60318;-67
2024/01/18 05:33:18;;;;;;;117.80;44.50;;;;;;;5.92;54.48;98513.98;108054;1254;72851;-67
2024/01/18 05:35:46;;;;;;;83.90;31.30;;;;;;;5.90;54.74;98518.98;108067;1254;69154;-66
2024/01/18 05:38:14;;;;;;;96.80;38.20;;;;;;;5.59;55.85;98533.70;108079;1254;72581;-67
2024/01/18 05:40:42;;;;;;;108.90;35.50;;;;;;;5.40;56.56;98526.46;108170;1257;60401;-66
2024/01/18 05:43:10;;;;;;;88.80;34.10;;;;;;;5.43;57.18;98513.14;108038;1254;60299;-67
2024/01/18 05:45:37;;;;;;;78.50;28.20;;;;;;;5.50;57.09;98505.89;108115;1254;73855;-66
2024/01/18 05:48:06;;;;;;;108.90;40.10;;;;;;;5.69;56.70;98491.66;108063;1254;68693;-66
2024/01/18 05:50:33;;;;;;;93.20;37.00;;;;;;;5.97;56.19;98486.46;108145;1254;72667;-66
2024/01/18 05:53:01;;;;;;;85.40;31.40;;;;;;;6.04;55.94;98481.08;108060;1254;61703;-67
2024/01/18 05:55:30;;;;;;;82.80;29.30;;;;;;;5.86;56.91;98484.33;107929;1254;60546;-67
2024/01/18 05:57:57;;;;;;;72.70;27.80;;;;;;;5.52;58.18;98481.96;108009;1254;74003;-68
2024/01/18 06:00:25;;;;;;;86.80;29.00;;;;;;;5.65;58.18;98483.27;108051;1254;69545;-67
2024/01/18 06:02:53;;;;;;;87.80;32.10;;;;;;;5.59;58.63;98482.33;108062;1253;71453;-67
2024/01/18 06:05:21;;;;;;;122.20;41.50;;;;;;;5.78;58.77;98473.32;107899;1256;61922;-67
2024/01/18 06:07:49;;;;;;;88.90;31.50;;;;;;;5.96;58.29;98479.70;108060;1253;60373;-67
2024/01/18 06:10:17;;;;;;;111.80;38.10;;;;;;;5.98;58.79;98480.32;108055;1253;72952;-66
2024/01/18 06:12:45;;;;;;;86.30;32.70;;;;;;;6.47;57.50;98478.60;108183;1254;69117;-67
2024/01/18 06:15:12;;;;;;;115.20;42.10;;;;;;;6.32;58.22;98482.44;108117;1254;71390;-66
2024/01/18 06:17:40;;;;;;;91.40;31.90;;;;;;;6.19;59.06;98480.92;108075;1254;60421;-67
2024/01/18 06:20:08;;;;;;;108.20;37.50;;;;;;;6.40;59.14;98473.90;108124;1258;61104;-66
2024/01/18 06:22:36;;;;;;;127.10;44.70;;;;;;;6.52;59.05;98470.00;108132;1254;73217;-66
2024/01/18 06:25:03;;;;;;;120.40;43.50;;;;;;;6.79;58.65;98456.34;108102;1254;69278;-64
2024/01/18 06:27:32;;;;;;;102.50;34.50;;;;;;;7.14;57.69;98437.36;108158;1253;72707;-64
2024/01/18 06:30:00;;;;;;;103.00;38.90;;;;;;;7.23;57.91;98432.88;108167;1254;60450;-68
2024/01/18 06:32:28;;;;;;;95.60;37.10;;;;;;;7.25;58.17;98433.66;108200;1254;60454;-67
2024/01/18 06:34:55;;;;;;;68.60;25.50;;;;;;;7.29;58.93;98434.00;108152;1257;74224;-64
2024/01/18 06:37:23;;;;;;;112.50;41.10;;;;;;;7.21;59.77;98431.95;108118;1253;68697;-67
2024/01/18 06:39:52;;;;;;;79.20;29.30;;;;;;;7.73;58.92;98431.17;108088;1253;71402;-67
2024/01/18 06:42:20;;;;;;;80.40;31.60;;;;;;;7.95;59.07;98424.08;108150;1253;60863;-68
2024/01/18 06:44:48;;;;;;;89.80;37.30;;;;;;;8.08;58.99;98417.27;108077;1253;60441;-67
2024/01/18 06:47:15;;;;;;;86.10;36.70;;;;;;;8.00;59.87;98412.11;108097;1254;72977;-68
2024/01/18 06:49:43;;;;;;;71.60;28.70;;;;;;;8.12;60.06;98418.65;107977;1252;69956;-68
2024/01/18 06:52:10;;;;;;;88.00;37.90;;;;;;;8.20;60.49;98414.52;108147;1255;72751;-68
2024/01/18 06:54:38;;;;;;;79.20;35.80;;;;;;;8.24;60.60;98405.91;108111;1253;60392;-67
2024/01/18 06:57:06;;;;;;;77.30;33.70;;;;;;;8.35;60.88;98398.85;108253;1252;60299;-69
2024/01/18 06:59:35;;;;;;;70.90;32.40;;;;;;;8.67;60.50;98396.04;107652;1262;74111;-68
2024/01/18 07:02:02;;;;;;;81.70;36.90;;;;;;;8.85;60.12;98395.20;107779;1256;72344;-68
2024/01/18 07:04:30;;;;;;;53.40;22.20;;;;;;;8.78;60.35;98397.48;107828;1256;73722;-68
2024/01/18 07:06:58;;;;;;;54.30;22.60;;;;;;;8.63;61.60;98410.77;107743;1259;60396;-70
2024/01/18 07:09:26;;;;;;;74.20;34.10;;;;;;;8.92;61.36;98410.38;107786;1256;60264;-68
2024/01/18 07:11:53;;;;;;;56.90;27.60;;;;;;;9.38;59.86;98404.36;107912;1256;73925;-69
2024/01/18 07:14:21;;;;;;;63.80;31.60;;;;;;;9.30;60.13;98404.80;107781;1256;70332;-68
2024/01/18 07:16:51;;;;;;;48.40;22.00;;;;;;;9.07;60.88;98404.78;107786;1257;72746;-68
2024/01/18 07:19:18;;;;;;;52.30;26.30;;;;;;;9.12;61.13;98408.86;107732;1257;60880;-67
2024/01/18 07:21:46;;;;;;;47.60;24.50;;;;;;;9.24;61.09;98407.98;107799;1256;62612;-67
2024/01/18 07:24:13;;;;;;;50.00;26.10;;;;;;;9.58;59.73;98407.19;107783;1261;73537;-69
2024/01/18 07:26:41;;;;;;;50.90;24.90;;;;;;;9.27;60.58;98405.02;107811;1256;70598;-68
2024/01/18 07:29:09;;;;;;;47.20;23.70;;;;;;;9.57;59.85;98397.10;107864;1256;71447;-67
2024/01/18 07:31:36;;;;;;;45.30;23.10;;;;;;;9.68;59.46;98400.41;107812;1256;60874;-68
2024/01/18 07:34:04;;;;;;;40.10;19.80;;;;;;;9.70;59.40;98388.23;107663;1257;60255;-69
2024/01/18 07:36:32;;;;;;;47.40;23.80;;;;;;;9.63;59.40;98387.11;107657;1257;75008;-69
2024/01/18 07:38:59;;;;;;;37.90;18.40;;;;;;;9.76;59.12;98383.86;107699;1262;68022;-66
2024/01/18 07:41:27;;;;;;;47.60;19.40;;;;;;;9.27;60.55;98373.33;107758;1256;71492;-68
2024/01/18 07:43:58;;;;;;;38.30;20.10;;;;;;;9.47;60.03;98363.86;107734;1258;60394;-67
2024/01/18 07:46:26;;;;;;;36.50;19.90;;;;;;;9.54;59.90;98363.42;107683;1257;60039;-65
2024/01/18 07:48:54;;;;;;;39.00;22.20;;;;;;;9.60;59.82;98368.16;107670;1259;73965;-68
2024/01/18 07:51:22;;;;;;;39.60;20.80;;;;;;;9.79;59.17;98358.59;107688;1256;69050;-69
2024/01/18 07:53:50;;;;;;;27.80;13.90;;;;;;;10.03;58.45;98346.89;107728;1256;75242;-68
2024/01/18 07:56:17;;;;;;;38.00;19.80;;;;;;;9.72;59.29;98347.26;107661;1260;60779;-67
2024/01/18 07:58:44;;;;;;;26.30;12.70;;;;;;;9.96;58.76;98341.07;107689;1262;60382;-69
2024/01/18 08:01:12;;;;;;;39.80;22.50;;;;;;;9.86;58.95;98341.14;107699;1256;74334;-69
2024/01/18 08:03:39;;;;;;;34.30;15.70;;;;;;;10.24;57.73;98338.02;107505;1259;70236;-69
2024/01/18 08:06:08;;;;;;;43.00;17.40;;;;;;;10.01;58.48;98336.30;107703;1258;72686;-70
2024/01/18 08:08:36;;;;;;;42.20;21.50;;;;;;;10.09;58.33;98335.51;107723;1262;62929;-69
2024/01/18 08:11:04;;;;;;;41.90;22.50;;;;;;;10.46;57.36;98327.36;107666;1257;62250;-69
2024/01/18 08:13:32;;;;;;;43.30;21.70;;;;;;;10.47;57.09;98320.42;107663;1259;72626;-70
2024/01/18 08:16:01;;;;;;;38.00;19.40;;;;;;;10.60;56.72;98320.08;107672;1262;68991;-69
2024/01/18 08:18:29;;;;;;;40.30;20.20;;;;;;;10.19;57.78;98327.10;107655;1259;72500;-69
2024/01/18 08:20:56;;;;;;;32.60;18.20;;;;;;;10.36;57.32;98327.29;107681;1257;60260;-68
2024/01/18 08:23:24;;;;;;;36.60;18.00;;;;;;;10.20;57.66;98323.02;107740;1257;62231;-69
2024/01/18 08:25:52;;;;;;;31.30;18.20;;;;;;;10.33;57.29;98322.19;107708;1256;74074;-68
2024/01/18 08:28:19;;;;;;;31.30;15.80;;;;;;;10.38;57.05;98321.73;107695;1262;69132;-68
2024/01/18 08:30:47;;;;;;;27.70;14.00;;;;;;;10.24;57.81;98322.46;107668;1258;71431;-68
2024/01/18 08:33:15;;;;;;;40.50;19.90;;;;;;;10.47;57.09;98323.09;107647;1263;60268;-68
2024/01/18 08:35:43;;;;;;;35.90;17.50;;;;;;;10.58;56.78;98322.68;107656;1259;61197;-68
2024/01/18 08:38:10;;;;;;;40.60;21.30;;;;;;;10.42;57.05;98315.52;107720;1258;76305;-68
2024/01/18 08:40:38;;;;;;;40.40;20.10;;;;;;;10.30;57.00;98302.42;107691;1258;69318;-68
2024/01/18 08:43:06;;;;;;;35.20;18.70;;;;;;;10.40;57.11;98297.04;107679;1257;75116;-66
2024/01/18 08:45:34;;;;;;;33.40;19.80;;;;;;;10.34;57.47;98296.89;107666;1257;62927;-67
2024/01/18 08:48:02;;;;;;;38.70;20.40;;;;;;;10.54;56.91;98293.64;107715;1257;60310;-68
2024/01/18 08:50:30;;;;;;;38.40;20.50;;;;;;;10.47;56.98;98289.56;107694;1258;72844;-67
2024/01/18 08:52:57;;;;;;;28.10;15.30;;;;;;;10.46;56.93;98282.75;107693;1263;70610;-68
2024/01/18 08:55:25;;;;;;;29.40;16.90;;;;;;;10.21;57.72;98280.39;107665;1258;73131;-68
2024/01/18 08:57:53;;;;;;;30.80;17.10;;;;;;;10.12;58.10;98282.52;107677;1257;60288;-69
2024/01/18 09:00:21;;;;;;;32.30;16.40;;;;;;;10.62;56.78;98278.05;107672;1260;61402;-69
2024/01/18 09:02:49;;;;;;;34.30;16.70;;;;;;;10.29;57.54;98274.08;107556;1257;74088;-69
2024/01/18 09:05:19;;;;;;;35.00;19.10;;;;;;;10.33;57.40;98271.52;107721;1260;70375;-71
2024/01/18 09:07:46;;;;;;;34.00;17.50;;;;;;;10.36;57.22;98273.44;107714;1258;72906;-68
2024/01/18 09:10:14;;;;;;;40.50;20.10;;;;;;;10.35;57.26;98267.54;107658;1259;60393;-69
2024/01/18 09:12:43;;;;;;;38.50;22.00;;;;;;;10.37;57.16;98272.14;107714;1263;59275;-69
2024/01/18 09:15:11;;;;;;;34.20;18.00;;;;;;;10.32;57.17;98268.42;107671;1258;74064;-68
2024/01/18 09:17:40;;;;;;;39.70;20.10;;;;;;;9.96;58.26;98267.75;107743;1258;70015;-69
2024/01/18 09:20:09;;;;;;;33.30;18.80;;;;;;;10.00;58.17;98266.45;107681;1257;73257;-68
2024/01/18 09:22:37;;;;;;;37.60;21.90;;;;;;;9.83;58.82;98269.98;107742;1258;60166;-69
2024/01/18 09:25:06;;;;;;;30.20;17.10;;;;;;;10.18;57.75;98260.92;107553;1259;60524;-69
2024/01/18 09:27:33;;;;;;;37.30;22.50;;;;;;;10.17;57.75;98252.71;107724;1258;72695;-69
2024/01/18 09:30:02;;;;;;;35.80;19.20;;;;;;;10.21;57.60;98261.10;107604;1257;72510;-68
2024/01/18 09:32:29;;;;;;;29.00;16.70;;;;;;;10.12;57.78;98252.35;107559;1260;72839;-69
2024/01/18 09:34:57;;;;;;;37.60;21.00;;;;;;;9.93;58.48;98252.90;107666;1257;61164;-68
2024/01/18 09:37:27;;;;;;;36.20;19.30;;;;;;;10.12;57.65;98249.36;107781;1256;60424;-68
2024/01/18 09:39:55;;;;;;;29.10;16.90;;;;;;;10.10;57.68;98253.54;107911;1257;74313;-70
2024/01/18 09:42:22;;;;;;;40.30;20.20;;;;;;;10.02;58.06;98249.15;107897;1256;70696;-69
2024/01/18 09:44:50;;;;;;;40.20;22.80;;;;;;;10.17;57.53;98250.80;107713;1257;72450;-69
2024/01/18 09:47:18;;;;;;;29.40;14.50;;;;;;;10.28;57.24;98245.52;107687;1262;60437;-69
2024/01/18 09:49:46;;;;;;;40.10;22.60;;;;;;;10.17;57.61;98240.67;107843;1256;60424;-68
2024/01/18 09:52:14;;;;;;;38.70;21.30;;;;;;;10.33;57.04;98228.22;107800;1257;76081;-67
2024/01/18 09:54:42;;;;;;;36.30;20.50;;;;;;;10.51;56.58;98222.95;107774;1256;69027;-67
2024/01/18 09:57:13;;;;;;;49.10;24.70;;;;;;;10.44;56.60;98229.05;107800;1256;72084;-67
2024/01/18 09:59:44;;;;;;;43.90;24.20;;;;;;;10.52;56.33;98224.11;107801;1257;61042;-67
2024/01/18 10:02:12;;;;;;;29.40;17.20;;;;;;;10.47;56.36;98224.10;107691;1256;60409;-66
2024/01/18 10:04:41;;;;;;;33.40;16.00;;;;;;;10.26;57.04;98213.73;107786;1256;74710;-67
2024/01/18 10:07:09;;;;;;;46.10;23.90;;;;;;;10.19;57.40;98213.31;107925;1256;70791;-68
2024/01/18 10:09:37;;;;;;;49.30;26.30;;;;;;;10.44;56.69;98222.22;107867;1256;72784;-68
2024/01/18 10:12:05;;;;;;;39.90;19.00;;;;;;;10.67;55.94;98223.83;107806;1256;61163;-67
2024/01/18 10:14:43;;;;;;;42.20;23.80;;;;;;;10.16;57.30;98223.30;107828;1256;59158;-68
2024/01/18 10:17:25;;;;;;;50.90;27.40;;;;;;;10.47;56.45;98219.58;107835;1257;74096;-67
2024/01/18 10:19:57;;;;;;;45.60;24.90;;;;;;;10.25;57.04;98207.69;107845;1261;72631;-66
2024/01/18 10:22:25;;;;;;;45.30;25.40;;;;;;;10.22;57.18;98199.11;107771;1256;74184;-68
2024/01/18 10:24:52;;;;;;;43.10;23.50;;;;;;;10.22;57.16;98188.77;107754;1257;60400;-68
2024/01/18 10:27:21;;;;;;;41.00;22.30;;;;;;;10.53;56.41;98181.05;107625;1256;60743;-67
2024/01/18 10:29:49;;;;;;;39.10;21.00;;;;;;;10.57;56.20;98174.52;107747;1257;73160;-67
2024/01/18 10:32:17;;;;;;;41.50;23.40;;;;;;;10.63;55.92;98173.20;107790;1257;70195;-67
2024/01/18 10:34:46;;;;;;;37.50;20.60;;;;;;;10.47;56.38;98174.31;107843;1262;74891;-67
2024/01/18 10:37:17;;;;;;;36.70;22.20;;;;;;;10.33;56.86;98172.29;107795;1256;60345;-67
2024/01/18 10:39:46;;;;;;;34.80;16.40;;;;;;;10.56;56.21;98161.58;107841;1256;61047;-67
2024/01/18 10:42:15;;;;;;;37.00;18.80;;;;;;;10.37;56.65;98159.55;107758;1261;76020;-68
2024/01/18 10:44:44;;;;;;;40.00;21.90;;;;;;;10.36;56.69;98160.64;107867;1261;71128;-68
2024/01/18 10:47:13;;;;;;;36.30;17.90;;;;;;;10.43;56.47;98155.42;107839;1257;75377;-68
2024/01/18 10:49:40;;;;;;;40.40;22.70;;;;;;;10.67;55.95;98151.22;107817;1256;63016;-68
2024/01/18 10:52:09;;;;;;;45.90;23.90;;;;;;;10.40;56.54;98146.14;107806;1261;60985;-68
2024/01/18 10:54:38;;;;;;;39.70;23.70;;;;;;;10.60;56.07;98146.55;107891;1256;76062;-67
2024/01/18 10:57:21;;;;;;;37.60;19.20;;;;;;;10.58;56.22;98144.97;107929;1257;70642;-68
2024/01/18 10:59:49;;;;;;;42.60;23.00;;;;;;;10.39;56.58;98146.40;107904;1256;71411;-67
2024/01/18 11:02:16;;;;;;;41.90;22.10;;;;;;;10.80;55.56;98146.45;107781;1256;61160;-67
2024/01/18 11:04:44;;;;;;;40.80;22.60;;;;;;;10.76;55.50;98149.29;107789;1257;60243;-69
2024/01/18 11:07:12;;;;;;;46.00;24.80;;;;;;;10.71;55.65;98141.60;107785;1261;74549;-67
2024/01/18 11:09:39;;;;;;;46.40;25.50;;;;;;;10.66;55.76;98138.42;107656;1256;70479;-67
2024/01/18 11:12:07;;;;;;;42.70;19.70;;;;;;;10.63;55.79;98130.39;107652;1256;75000;-67
2024/01/18 11:14:35;;;;;;;44.20;24.00;;;;;;;10.81;55.41;98127.73;107729;1256;60977;-67
2024/01/18 11:17:19;;;;;;;43.30;23.80;;;;;;;10.68;55.61;98123.71;107672;1256;60576;-67
2024/01/18 11:19:47;;;;;;;36.10;18.60;;;;;;;10.79;55.19;98117.00;107736;1257;74064;-67